Time;durP1;ratioP1;P1;durP2;ratioP2;P2;SDS_P1;SDS_P2;PMS_P1;PMS_P2;Temp;Humidity;BMP_temperature;BMP_pressure;BME280_temperature;BME280_humidity;BME280_pressure;Samples;Min_cycle;Max_cycle;Signal;HPM_P1;HPM_P2
2022/04/23 00:00:41;;;;;;;19.60;16.80;;;8.20;99.90;8.50;95635.00;;;;4972666;28;20199;-69
2022/04/23 00:03:09;;;;;;;22.27;16.73;;;8.10;99.90;8.50;95640.00;;;;4973302;28;20242;-69
2022/04/23 00:05:38;;;;;;;21.90;17.27;;;8.20;99.90;8.50;95635.00;;;;4973209;28;20202;-69
2022/04/23 00:08:09;;;;;;;22.27;17.57;;;8.20;99.90;8.50;95637.00;;;;4972815;28;20216;-69
2022/04/23 00:10:38;;;;;;;25.47;17.30;;;8.20;99.90;8.50;95638.00;;;;4973224;28;20688;-69
2022/04/23 00:13:07;;;;;;;23.83;18.83;;;8.20;99.90;8.50;95642.00;;;;4973028;28;20199;-69
2022/04/23 00:15:37;;;;;;;22.90;17.90;;;8.20;99.90;8.50;95642.00;;;;4972897;28;20551;-69
2022/04/23 00:18:08;;;;;;;23.67;16.83;;;8.20;99.90;8.50;95635.00;;;;4972155;28;20245;-69
2022/04/23 00:20:38;;;;;;;21.00;17.03;;;8.20;99.90;8.40;95644.00;;;;4972758;28;20206;-69
2022/04/23 00:23:09;;;;;;;22.97;17.70;;;8.20;99.90;8.50;95637.00;;;;4991916;28;20190;-69
2022/04/23 00:25:38;;;;;;;29.25;23.02;;;8.10;99.90;8.50;95644.00;;;;4972796;28;20404;-69
2022/04/23 00:28:09;;;;;;;25.20;18.77;;;8.20;99.90;8.60;95647.00;;;;4972130;28;20686;-69
2022/04/23 00:30:38;;;;;;;23.33;18.37;;;8.20;99.90;8.60;95656.00;;;;4972436;28;20203;-70
2022/04/23 00:33:08;;;;;;;26.13;20.50;;;8.20;99.90;8.60;95652.00;;;;4972352;28;20203;-69
2022/04/23 00:35:36;;;;;;;30.27;19.37;;;8.20;99.90;8.50;95653.00;;;;4972425;28;20668;-69
2022/04/23 00:38:07;;;;;;;25.60;18.73;;;8.20;99.90;8.50;95656.00;;;;4972013;28;20587;-69
2022/04/23 00:40:38;;;;;;;25.73;19.60;;;8.20;99.90;8.50;95657.00;;;;4972413;28;20206;-69
2022/04/23 00:43:10;;;;;;;23.63;19.70;;;8.20;99.90;8.50;95651.00;;;;4972565;28;20195;-69
2022/04/23 00:45:40;;;;;;;24.93;19.17;;;8.20;99.90;8.50;95661.00;;;;4971391;28;20275;-69
2022/04/23 00:48:09;;;;;;;21.90;17.37;;;8.20;99.90;8.50;95648.00;;;;4971609;28;20227;-69
2022/04/23 00:50:38;;;;;;;26.60;19.20;;;8.20;99.90;8.50;95655.00;;;;4971691;28;20222;-69
2022/04/23 00:53:07;;;;;;;24.67;18.90;;;8.20;99.90;8.50;95654.00;;;;4972410;28;20302;-69
2022/04/23 00:55:38;;;;;;;25.30;18.93;;;8.20;99.90;8.40;95636.00;;;;4972175;28;20594;-69
2022/04/23 00:58:07;;;;;;;24.97;19.40;;;8.20;99.90;8.50;95637.00;;;;4971667;28;20223;-69
2022/04/23 01:00:39;;;;;;;23.90;19.37;;;8.20;99.90;8.50;95634.00;;;;4971987;28;20198;-69
2022/04/23 01:03:07;;;;;;;24.50;18.33;;;8.20;99.90;8.50;95643.00;;;;4972300;28;20273;-69
2022/04/23 01:05:36;;;;;;;26.33;19.57;;;8.20;99.90;8.60;95637.00;;;;4971928;28;20578;-69
2022/04/23 01:08:05;;;;;;;25.93;19.03;;;8.20;99.90;8.50;95646.00;;;;4971485;28;20579;-69
2022/04/23 01:10:36;;;;;;;27.10;21.13;;;8.20;99.90;8.60;95640.00;;;;4971739;28;20632;-69
2022/04/23 01:13:06;;;;;;;26.43;19.80;;;8.20;99.90;8.60;95640.00;;;;4972026;28;20199;-69
2022/04/23 01:15:34;;;;;;;24.90;21.47;;;8.20;99.90;8.60;95633.00;;;;4971629;28;20203;-69
2022/04/23 01:18:03;;;;;;;27.97;21.07;;;8.20;99.90;8.60;95634.00;;;;4970756;28;20369;-69
2022/04/23 01:20:34;;;;;;;25.87;19.80;;;8.20;99.90;8.60;95631.00;;;;4971657;28;20218;-69
2022/04/23 01:23:03;;;;;;;26.30;19.93;;;8.20;99.90;8.50;95635.00;;;;4990657;28;20191;-69
2022/04/23 01:25:33;;;;;;;27.30;21.20;;;8.20;99.90;8.50;95641.00;;;;4973665;28;20321;-69
2022/04/23 01:28:03;;;;;;;25.47;19.17;;;8.20;99.90;8.60;95638.00;;;;4971233;28;20223;-69
2022/04/23 01:30:31;;;;;;;26.50;19.10;;;8.20;99.90;8.50;95629.00;;;;4971210;28;20242;-69
2022/04/23 01:33:00;;;;;;;26.23;20.33;;;8.20;99.90;8.50;95625.00;;;;4971614;28;20195;-69
2022/04/23 01:35:29;;;;;;;28.23;20.33;;;8.20;99.90;8.50;95631.00;;;;4971425;28;20213;-69
2022/04/23 01:37:59;;;;;;;24.77;18.37;;;8.20;99.90;8.50;95637.00;;;;4970905;28;20642;-69
2022/04/23 01:40:28;;;;;;;27.40;19.90;;;8.20;99.90;8.50;95643.00;;;;4971474;28;20694;-69
2022/04/23 01:42:56;;;;;;;27.77;18.67;;;8.20;99.90;8.50;95639.00;;;;4971539;28;20203;-69
2022/04/23 01:45:25;;;;;;;28.83;21.70;;;8.20;99.90;8.50;95645.00;;;;4971209;28;20292;-69
2022/04/23 01:47:54;;;;;;;26.27;20.90;;;8.20;99.90;8.60;95648.00;;;;4971207;28;20577;-69
2022/04/23 01:50:23;;;;;;;31.23;20.60;;;8.20;99.90;8.50;95640.00;;;;4970766;28;20215;-69
2022/04/23 01:52:51;;;;;;;28.83;22.40;;;8.20;99.90;8.60;95639.00;;;;4971415;28;20265;-69
2022/04/23 01:55:22;;;;;;;25.60;19.97;;;8.20;99.90;8.50;95651.00;;;;4971172;28;20210;-69
2022/04/23 01:57:50;;;;;;;29.07;20.77;;;8.20;99.90;8.50;95649.00;;;;4971089;28;20290;-69
2022/04/23 02:00:19;;;;;;;34.30;22.13;;;8.10;99.90;8.50;95649.00;;;;4971033;28;20278;-69
2022/04/23 02:02:47;;;;;;;32.70;23.07;;;8.20;99.90;8.50;95642.00;;;;4971108;28;20203;-69
2022/04/23 02:05:16;;;;;;;26.90;18.83;;;8.20;99.90;8.50;95642.00;;;;4971321;28;20641;-69
2022/04/23 02:07:46;;;;;;;25.50;19.80;;;8.20;99.90;8.50;95645.00;;;;4970691;28;20289;-69
2022/04/23 02:10:17;;;;;;;32.83;22.33;;;8.20;99.90;8.40;95636.00;;;;4970805;28;20230;-69
2022/04/23 02:12:47;;;;;;;25.97;18.27;;;8.10;99.90;8.30;95640.00;;;;4971222;28;20564;-69
2022/04/23 02:15:17;;;;;;;29.80;20.23;;;8.10;99.90;8.40;95644.00;;;;4970634;28;20199;-69
2022/04/23 02:17:47;;;;;;;32.27;20.67;;;8.10;99.90;8.50;95647.00;;;;4970679;28;20234;-69
2022/04/23 02:20:17;;;;;;;29.50;20.87;;;8.10;99.90;8.50;95648.00;;;;4970742;28;20205;-69
2022/04/23 02:22:47;;;;;;;29.10;20.70;;;8.10;99.90;8.50;95646.00;;;;4987379;28;20599;-69
2022/04/23 02:25:16;;;;;;;25.60;19.50;;;8.10;99.90;8.40;95650.00;;;;4975142;28;20693;-69
2022/04/23 02:27:48;;;;;;;26.63;21.30;;;8.10;99.90;8.40;95650.00;;;;4970445;28;20271;-69
2022/04/23 02:30:19;;;;;;;28.67;21.00;;;8.10;99.90;8.40;95651.00;;;;4970805;28;20301;-69
2022/04/23 02:32:48;;;;;;;28.67;20.47;;;8.10;99.90;8.40;95644.00;;;;4971120;28;20223;-69
2022/04/23 02:35:18;;;;;;;27.67;19.47;;;8.10;99.90;8.40;95646.00;;;;4970868;28;20586;-69
2022/04/23 02:37:48;;;;;;;27.53;20.50;;;8.10;99.90;8.40;95650.00;;;;4970566;28;20249;-69
2022/04/23 02:40:17;;;;;;;28.87;20.23;;;8.10;99.90;8.40;95657.00;;;;4971137;28;20234;-69
2022/04/23 02:42:48;;;;;;;30.57;20.07;;;8.10;99.90;8.40;95660.00;;;;4971052;28;20624;-69
2022/04/23 02:45:16;;;;;;;26.87;19.97;;;8.10;99.90;8.50;95652.00;;;;4970903;28;20632;-69
2022/04/23 02:47:47;;;;;;;34.10;22.77;;;8.10;99.90;8.50;95651.00;;;;4970302;28;20219;-69
2022/04/23 02:50:25;;;;;;;29.80;21.10;;;8.10;99.90;8.50;95650.00;;;;4969829;28;20221;-69
2022/04/23 02:52:56;;;;;;;28.23;20.83;;;8.10;99.90;8.50;95645.00;;;;4970678;28;20562;-69
2022/04/23 02:55:26;;;;;;;33.77;21.40;;;8.10;99.90;8.50;95644.00;;;;4970885;28;20245;-69
2022/04/23 02:57:56;;;;;;;28.27;20.97;;;8.20;99.90;8.50;95647.00;;;;4970106;28;20621;-69
2022/04/23 03:00:25;;;;;;;28.43;19.83;;;8.20;99.90;8.50;95649.00;;;;4970189;28;20227;-69
2022/04/23 03:02:54;;;;;;;30.50;22.40;;;8.20;99.90;8.50;95649.00;;;;4970781;28;20222;-70
2022/04/23 03:05:25;;;;;;;31.83;21.47;;;8.20;99.90;8.50;95649.00;;;;4970571;28;20562;-69
2022/04/23 03:07:54;;;;;;;35.03;22.13;;;8.20;99.90;8.50;95656.00;;;;4970329;28;20555;-69
2022/04/23 03:10:23;;;;;;;30.97;21.97;;;8.20;99.90;8.40;95643.00;;;;4973790;28;20636;-69
2022/04/23 03:12:52;;;;;;;35.33;23.27;;;8.20;99.90;8.50;95655.00;;;;4974109;28;20556;-69
2022/04/23 03:15:22;;;;;;;30.03;21.10;;;8.20;99.90;8.40;95657.00;;;;4973913;28;20226;-69
2022/04/23 03:17:51;;;;;;;30.60;22.40;;;8.20;99.90;8.40;95662.00;;;;4973679;28;20219;-69
2022/04/23 03:20:21;;;;;;;31.63;22.20;;;8.10;99.90;8.40;95662.00;;;;4954608;29;20204;-69
2022/04/23 03:22:49;;;;;;;30.23;20.67;;;8.10;99.90;8.40;95666.00;;;;4987915;28;20195;-69
2022/04/23 03:25:18;;;;;;;30.97;22.73;;;8.10;99.90;8.30;95664.00;;;;4977603;28;20249;-69
2022/04/23 03:27:46;;;;;;;28.43;21.70;;;8.10;99.90;8.30;95663.00;;;;4973337;28;20290;-69
2022/04/23 03:30:15;;;;;;;28.97;20.10;;;8.10;99.90;8.30;95667.00;;;;4973640;28;20215;-69
2022/04/23 03:32:45;;;;;;;34.87;20.30;;;8.10;99.90;8.30;95668.00;;;;4973779;28;20195;-69
2022/04/23 03:35:14;;;;;;;27.43;19.77;;;8.00;99.90;8.20;95660.00;;;;4973510;28;20574;-69
2022/04/23 03:37:43;;;;;;;29.27;21.00;;;8.00;99.90;8.20;95661.00;;;;4973066;28;20241;-69
2022/04/23 03:40:13;;;;;;;31.23;21.33;;;8.00;99.90;8.20;95664.00;;;;4973529;28;20207;-69
2022/04/23 03:42:45;;;;;;;32.87;22.37;;;8.00;99.90;8.20;95666.00;;;;4973547;28;20629;-69
2022/04/23 03:45:13;;;;;;;33.23;22.37;;;8.00;99.90;8.20;95655.00;;;;4973517;28;20685;-69
2022/04/23 03:47:46;;;;;;;30.80;22.20;;;7.90;99.90;8.20;95656.00;;;;4972713;28;21038;-69
2022/04/23 03:50:15;;;;;;;31.57;23.80;;;7.90;99.90;8.20;95661.00;;;;4973105;28;20303;-69
2022/04/23 03:52:44;;;;;;;28.17;21.23;;;7.90;99.90;8.10;95664.00;;;;4973363;28;20615;-69
2022/04/23 03:55:13;;;;;;;29.60;22.20;;;7.90;99.90;8.10;95675.00;;;;4973235;28;20282;-69
2022/04/23 03:57:47;;;;;;;31.60;20.87;;;7.80;99.90;8.20;95676.00;;;;4972741;28;20251;-69
2022/04/23 04:00:19;;;;;;;33.00;21.97;;;7.80;99.90;8.10;95675.00;;;;4972550;28;20557;-69
2022/04/23 04:02:51;;;;;;;32.23;20.67;;;7.80;99.90;8.10;95669.00;;;;4973019;28;20226;-69
2022/04/23 04:05:19;;;;;;;27.93;21.43;;;7.80;99.90;8.10;95682.00;;;;4973138;28;20219;-69
2022/04/23 04:07:49;;;;;;;30.80;22.07;;;7.80;99.90;8.10;95675.00;;;;4972497;28;20346;-69
2022/04/23 04:10:19;;;;;;;28.43;21.30;;;7.80;99.90;8.10;95688.00;;;;4972916;28;20238;-69
2022/04/23 04:12:49;;;;;;;31.13;21.80;;;7.80;99.90;8.10;95688.00;;;;4973003;28;20740;-69
2022/04/23 04:15:20;;;;;;;24.87;19.60;;;7.80;99.90;8.20;95688.00;;;;4971205;28;20642;-69
2022/04/23 04:17:51;;;;;;;23.77;18.20;;;7.80;99.90;8.10;95693.00;;;;4971921;28;20726;-69
2022/04/23 04:20:21;;;;;;;28.27;19.20;;;7.80;99.90;8.00;95696.00;;;;4952557;28;20279;-69
2022/04/23 04:22:51;;;;;;;20.63;15.77;;;7.80;99.90;8.00;95702.00;;;;4987253;28;20318;-69
2022/04/23 04:25:20;;;;;;;24.33;16.47;;;7.80;99.90;7.90;95705.00;;;;4976392;28;20200;-69
2022/04/23 04:27:49;;;;;;;24.27;14.77;;;7.80;99.90;8.00;95708.00;;;;4971707;28;20215;-69
2022/04/23 04:30:17;;;;;;;22.23;16.03;;;7.80;99.90;8.10;95718.00;;;;4971961;28;20675;-69
2022/04/23 04:32:51;;;;;;;22.23;15.17;;;7.80;99.90;8.10;95718.00;;;;4972623;28;20286;-69
2022/04/23 04:35:20;;;;;;;26.20;17.73;;;7.90;99.90;8.00;95706.00;;;;4972677;28;20298;-69
2022/04/23 04:37:48;;;;;;;21.73;16.27;;;7.90;99.90;8.00;95717.00;;;;4971998;28;20223;-69
2022/04/23 04:40:18;;;;;;;26.30;18.07;;;7.80;99.90;8.00;95722.00;;;;4972466;28;20207;-69
2022/04/23 04:42:46;;;;;;;25.40;16.53;;;7.80;99.90;8.10;95722.00;;;;4972244;28;20196;-69
2022/04/23 04:45:15;;;;;;;21.40;15.93;;;7.80;99.90;8.00;95739.00;;;;4972464;28;20225;-69
2022/04/23 04:47:43;;;;;;;24.93;16.60;;;7.80;99.90;8.10;95733.00;;;;4971910;28;20250;-69
2022/04/23 04:50:13;;;;;;;22.63;16.17;;;7.80;99.90;8.20;95740.00;;;;4971654;28;20510;-69
2022/04/23 04:52:42;;;;;;;21.60;14.70;;;7.90;99.90;8.20;95745.00;;;;4972038;28;20195;-69
2022/04/23 04:55:10;;;;;;;23.40;15.10;;;7.90;99.90;8.30;95745.00;;;;4971810;28;20219;-69
2022/04/23 04:57:39;;;;;;;23.70;16.57;;;7.90;99.90;8.30;95752.00;;;;4971687;28;20618;-69
2022/04/23 05:00:10;;;;;;;20.93;15.70;;;7.90;99.90;8.30;95759.00;;;;4971524;28;20269;-69
2022/04/23 05:02:39;;;;;;;22.60;16.17;;;7.90;99.90;8.30;95765.00;;;;4972225;28;20644;-69
2022/04/23 05:05:09;;;;;;;22.20;16.43;;;7.90;99.90;8.30;95760.00;;;;4971931;28;20203;-69
2022/04/23 05:07:39;;;;;;;21.17;15.47;;;8.00;99.90;8.40;95769.00;;;;4971705;28;20597;-69
2022/04/23 05:10:09;;;;;;;21.47;14.53;;;8.00;99.90;8.40;95764.00;;;;4971734;28;20226;-69
2022/04/23 05:12:37;;;;;;;19.83;14.93;;;8.00;99.90;8.40;95763.00;;;;4971805;28;20295;-69
2022/04/23 05:15:07;;;;;;;22.53;16.80;;;8.00;99.90;8.30;95764.00;;;;4971771;28;20196;-69
2022/04/23 05:17:39;;;;;;;21.03;15.07;;;8.00;99.90;8.30;95764.00;;;;4971461;28;20290;-69
2022/04/23 05:20:09;;;;;;;25.50;16.37;;;8.00;99.90;8.50;95770.00;;;;4971472;28;20611;-69
2022/04/23 05:22:39;;;;;;;24.53;17.27;;;8.00;99.90;8.50;95759.00;;;;4986775;28;20203;-69
2022/04/23 05:25:09;;;;;;;27.33;19.07;;;8.10;99.90;8.50;95764.00;;;;4976785;28;20559;-69
2022/04/23 05:27:38;;;;;;;28.07;20.00;;;8.10;99.90;8.50;95762.00;;;;4970941;28;20508;-69
2022/04/23 05:30:08;;;;;;;30.70;20.20;;;8.10;99.90;8.50;95766.00;;;;4971331;28;20682;-69
2022/04/23 05:32:37;;;;;;;30.37;22.27;;;8.10;99.90;8.30;95761.00;;;;4971229;28;20219;-69
2022/04/23 05:35:08;;;;;;;32.60;23.00;;;8.10;99.90;8.20;95769.00;;;;4971638;28;20301;-69
2022/04/23 05:37:39;;;;;;;35.00;23.77;;;8.10;99.90;8.30;95764.00;;;;4971084;28;20274;-69
2022/04/23 05:40:09;;;;;;;33.20;22.73;;;8.10;99.90;8.30;95761.00;;;;4971313;28;20753;-69
2022/04/23 05:42:38;;;;;;;38.60;24.40;;;8.10;99.90;8.20;95766.00;;;;4971877;28;20200;-69
2022/04/23 05:45:07;;;;;;;30.97;23.47;;;8.00;99.90;8.40;95762.00;;;;4969044;28;20551;-70
2022/04/23 05:47:36;;;;;;;34.70;23.80;;;8.00;99.90;8.40;95766.00;;;;4970416;28;20266;-70
2022/04/23 05:50:06;;;;;;;34.70;23.53;;;8.10;99.90;8.40;95761.00;;;;4969907;28;20223;-70
2022/04/23 05:52:34;;;;;;;36.10;25.33;;;8.10;99.90;8.50;95775.00;;;;4971070;28;20219;-70
2022/04/23 05:55:06;;;;;;;37.70;25.90;;;8.10;99.90;8.50;95767.00;;;;4970951;28;20635;-69
2022/04/23 05:57:35;;;;;;;32.17;24.10;;;8.10;99.90;8.50;95773.00;;;;4971015;28;20253;-69
2022/04/23 06:00:05;;;;;;;37.50;23.77;;;8.10;99.90;8.50;95773.00;;;;4970344;28;20625;-70
2022/04/23 06:02:34;;;;;;;32.57;23.00;;;8.10;99.90;8.50;95776.00;;;;4971346;28;20295;-70
2022/04/23 06:05:02;;;;;;;31.33;22.67;;;8.20;99.90;8.50;95777.00;;;;4970947;28;20274;-69
2022/04/23 06:07:31;;;;;;;34.70;23.93;;;8.20;99.90;8.50;95780.00;;;;4970678;28;20635;-69
2022/04/23 06:10:00;;;;;;;34.07;24.07;;;8.20;99.90;8.50;95784.00;;;;4970626;28;20548;-70
2022/04/23 06:12:31;;;;;;;33.40;23.77;;;8.20;99.90;8.60;95778.00;;;;4970904;28;20286;-69
2022/04/23 06:15:00;;;;;;;35.37;24.03;;;8.20;99.90;8.50;95780.00;;;;4970983;28;20217;-69
2022/04/23 06:17:29;;;;;;;34.23;23.50;;;8.20;99.90;8.60;95773.00;;;;4968744;28;20717;-70
2022/04/23 06:20:00;;;;;;;35.73;23.57;;;8.20;99.90;8.60;95775.00;;;;4970659;28;20610;-70
2022/04/23 06:22:29;;;;;;;31.40;22.47;;;8.20;99.90;8.60;95783.00;;;;4984822;28;20616;-70
2022/04/23 06:24:57;;;;;;;31.80;22.43;;;8.30;99.90;8.60;95776.00;;;;4974559;28;20607;-69
2022/04/23 06:27:26;;;;;;;35.80;22.30;;;8.30;99.90;8.60;95775.00;;;;4969859;28;20651;-69
2022/04/23 06:29:56;;;;;;;33.17;21.83;;;8.30;99.90;8.50;95779.00;;;;4967839;28;21006;-69
2022/04/23 06:32:24;;;;;;;28.20;21.50;;;8.30;99.90;8.40;95779.00;;;;4970388;28;20641;-69
2022/04/23 06:34:53;;;;;;;33.40;22.53;;;8.30;99.90;8.40;95782.00;;;;4970624;28;20196;-69
2022/04/23 06:37:21;;;;;;;32.07;21.17;;;8.30;99.90;8.20;95790.00;;;;4970261;28;20633;-69
2022/04/23 06:39:51;;;;;;;33.07;21.90;;;8.20;99.90;8.30;95804.00;;;;4970271;28;20218;-69
2022/04/23 06:42:20;;;;;;;32.93;22.17;;;8.20;99.90;8.20;95814.00;;;;4970291;28;20633;-69
2022/04/23 06:44:49;;;;;;;34.57;23.30;;;8.20;99.90;8.10;95826.00;;;;4973687;28;20627;-69
2022/04/23 06:47:19;;;;;;;36.23;23.73;;;8.20;99.90;8.20;95824.00;;;;4973996;28;20646;-69
2022/04/23 06:49:47;;;;;;;39.03;26.10;;;8.20;99.90;8.20;95819.00;;;;4973336;28;20580;-68
2022/04/23 06:52:16;;;;;;;40.77;25.13;;;8.20;99.90;8.30;95830.00;;;;4974258;28;20562;-69
2022/04/23 06:54:44;;;;;;;34.47;23.73;;;8.20;99.90;8.40;95816.00;;;;4974219;28;20262;-69
2022/04/23 06:57:13;;;;;;;38.17;24.33;;;8.20;99.90;8.70;95817.00;;;;4973717;28;20602;-68
2022/04/23 06:59:42;;;;;;;41.50;26.17;;;8.20;99.90;8.60;95817.00;;;;4973332;28;20218;-69
2022/04/23 07:02:10;;;;;;;36.23;25.33;;;8.30;99.90;8.70;95815.00;;;;4972731;28;20203;-69
2022/04/23 07:04:40;;;;;;;37.53;25.43;;;8.30;99.90;9.00;95809.00;;;;4974288;28;20200;-69
2022/04/23 07:07:10;;;;;;;30.33;21.83;;;8.40;99.90;9.10;95805.00;;;;4973832;28;20358;-69
2022/04/23 07:09:39;;;;;;;33.37;22.73;;;8.50;99.90;9.10;95808.00;;;;4973350;28;20215;-69
2022/04/23 07:12:09;;;;;;;28.90;21.47;;;8.60;99.90;9.10;95795.00;;;;4973527;28;20223;-69
2022/04/23 07:14:39;;;;;;;36.73;21.67;;;8.60;99.90;9.00;95798.00;;;;4972306;28;20678;-69
2022/04/23 07:17:10;;;;;;;31.33;21.73;;;8.60;99.90;9.20;95803.00;;;;4972227;28;20231;-69
2022/04/23 07:19:41;;;;;;;30.63;21.73;;;8.70;99.90;9.30;95802.00;;;;4972568;28;20614;-69
2022/04/23 07:22:10;;;;;;;31.07;22.23;;;8.70;99.90;9.40;95815.00;;;;4974296;28;20227;-69
2022/04/23 07:24:39;;;;;;;35.93;22.80;;;8.70;99.90;9.10;95814.00;;;;4973448;28;20686;-69
2022/04/23 07:27:07;;;;;;;35.87;24.00;;;8.80;99.90;8.90;95810.00;;;;4973064;28;20729;-69
2022/04/23 07:29:36;;;;;;;36.93;23.30;;;8.80;99.90;8.50;95819.00;;;;4973777;28;20223;-69
2022/04/23 07:32:07;;;;;;;39.00;23.93;;;8.70;99.90;8.90;95822.00;;;;4973065;28;20305;-69
2022/04/23 07:37:33;;;;;;;33.53;23.13;;;8.70;99.90;9.30;95846.00;;;;4969515;28;20308;-69
2022/04/23 07:40:05;;;;;;;42.87;27.10;;;8.70;99.90;9.40;95845.00;;;;4973342;28;20198;-69
2022/04/23 07:42:34;;;;;;;36.30;24.03;;;8.80;99.90;9.10;95846.00;;;;4973408;28;20739;-69
2022/04/23 07:45:03;;;;;;;39.13;24.97;;;8.80;99.90;9.10;95847.00;;;;4973282;28;20686;-69
2022/04/23 07:47:32;;;;;;;40.27;24.97;;;8.80;99.90;9.20;95842.00;;;;4973115;28;20691;-69
2022/04/23 07:50:01;;;;;;;39.97;25.73;;;8.80;99.90;9.30;95853.00;;;;4972257;28;20649;-69
2022/04/23 07:52:31;;;;;;;38.83;25.83;;;8.80;99.90;9.30;95854.00;;;;4973256;28;20238;-69
2022/04/23 07:55:00;;;;;;;44.50;28.70;;;8.80;99.90;9.40;95856.00;;;;4972696;28;20218;-69
2022/04/23 07:57:28;;;;;;;45.57;29.77;;;8.80;99.90;9.40;95855.00;;;;4972969;28;20223;-69
2022/04/23 07:59:57;;;;;;;40.27;26.87;;;8.90;99.90;9.40;95858.00;;;;4972364;28;20192;-69
2022/04/23 08:02:26;;;;;;;45.10;26.00;;;8.90;99.90;9.40;95861.00;;;;4972909;28;20753;-69
2022/04/23 08:04:54;;;;;;;42.20;22.97;;;8.90;99.90;9.40;95860.00;;;;4973025;28;20310;-69
2022/04/23 08:07:23;;;;;;;41.10;24.40;;;8.90;99.90;9.40;95865.00;;;;4972849;28;20564;-69
2022/04/23 08:09:53;;;;;;;31.37;22.53;;;8.90;99.90;9.40;95861.00;;;;4974654;28;20774;-70
2022/04/23 08:12:21;;;;;;;34.63;23.30;;;8.90;99.90;9.50;95864.00;;;;4980819;28;20195;-69
2022/04/23 08:14:50;;;;;;;36.17;23.10;;;8.90;99.90;9.50;95851.00;;;;4984986;28;20602;-69
2022/04/23 08:17:19;;;;;;;39.23;23.27;;;9.00;99.90;9.50;95854.00;;;;4974515;28;20219;-69
2022/04/23 08:19:47;;;;;;;35.20;22.03;;;9.00;99.90;9.60;95850.00;;;;4974411;28;20214;-69
2022/04/23 08:22:16;;;;;;;34.93;23.13;;;9.00;99.90;9.70;95856.00;;;;4978537;28;20227;-69
2022/04/23 08:24:44;;;;;;;32.27;20.90;;;9.10;99.90;9.60;95846.00;;;;4984584;28;20227;-69
2022/04/23 08:27:14;;;;;;;36.03;22.30;;;9.10;99.90;9.60;95853.00;;;;4991366;28;20219;-69
2022/04/23 08:32:29;;;;;;;32.60;19.63;;;9.20;99.90;9.60;95858.00;;;;4982096;28;20616;-69
2022/04/23 08:34:58;;;;;;;29.17;19.30;;;9.20;99.90;9.50;95849.00;;;;4972305;28;20627;-69
2022/04/23 08:37:27;;;;;;;37.03;20.83;;;9.20;99.90;9.40;95853.00;;;;4977106;28;20568;-69
2022/04/23 08:39:55;;;;;;;31.77;19.23;;;9.20;99.90;9.20;95846.00;;;;4952844;29;20604;-69
2022/04/23 08:42:25;;;;;;;30.03;19.27;;;9.20;99.90;9.40;95850.00;;;;4981154;28;20974;-69
2022/04/23 08:44:54;;;;;;;31.10;22.30;;;9.10;99.90;9.70;95857.00;;;;4979999;28;20195;-69
2022/04/23 08:47:25;;;;;;;31.97;19.87;;;9.10;99.90;9.70;95846.00;;;;4978444;28;20214;-69
2022/04/23 08:49:55;;;;;;;30.90;20.07;;;9.20;99.90;9.80;95856.00;;;;4973938;28;20191;-69
2022/04/23 08:52:32;;;;;;;40.30;23.53;;;9.20;99.90;9.80;95860.00;;;;4970904;28;20571;-69
2022/04/23 08:55:03;;;;;;;33.67;20.43;;;9.30;99.90;9.70;95858.00;;;;4972114;28;20213;-69
2022/04/23 08:57:33;;;;;;;32.27;20.67;;;9.30;99.90;9.80;95848.00;;;;4976085;28;20241;-69
2022/04/23 09:00:02;;;;;;;31.63;21.40;;;9.30;99.90;9.90;95856.00;;;;4990173;28;20650;-69
2022/04/23 09:02:35;;;;;;;33.97;20.50;;;9.30;99.90;9.90;95842.00;;;;4973683;28;20254;-69
2022/04/23 09:05:04;;;;;;;43.17;21.83;;;9.40;99.90;10.10;95843.00;;;;4971589;28;20598;-69
2022/04/23 09:07:33;;;;;;;33.87;22.87;;;9.40;99.90;10.30;95841.00;;;;4985801;28;20215;-69
2022/04/23 09:10:02;;;;;;;30.77;18.60;;;9.50;99.90;10.20;95838.00;;;;4987860;28;20298;-69
2022/04/23 09:12:53;;;;;;;29.27;18.37;;;9.60;99.90;10.20;95833.00;;;;4969604;28;20705;-69
2022/04/23 09:24:09;;;;;;;32.80;21.00;;;9.80;99.90;10.70;95847.00;;;;4957336;28;20254;-69
2022/04/23 09:26:40;;;;;;;33.50;18.60;;;9.90;99.90;11.00;95832.00;;;;4968739;28;20222;-69
2022/04/23 09:29:18;;;;;;;25.93;19.57;;;10.00;99.90;11.00;95842.00;;;;4971479;28;20199;-69
2022/04/23 09:31:46;;;;;;;32.17;18.77;;;10.20;99.90;10.80;95844.00;;;;4969661;28;20335;-69
2022/04/23 09:34:20;;;;;;;31.37;18.80;;;10.30;99.90;10.70;95847.00;;;;4971248;28;20223;-69
2022/04/23 09:36:50;;;;;;;29.03;19.47;;;10.30;99.90;11.20;95846.00;;;;4971041;28;20294;-69
2022/04/23 09:39:30;;;;;;;29.43;17.90;;;10.30;99.90;11.40;95847.00;;;;4970754;28;20195;-69
2022/04/23 09:42:13;;;;;;;34.70;18.93;;;10.50;99.90;11.50;95848.00;;;;4971378;28;20267;-69
2022/04/23 09:44:44;;;;;;;31.23;19.83;;;10.60;99.90;11.40;95854.00;;;;4970588;28;20273;-69
2022/04/23 09:47:29;;;;;;;32.67;17.20;;;10.70;99.90;11.00;95851.00;;;;4970852;28;20278;-69
2022/04/23 09:49:57;;;;;;;26.03;16.87;;;10.70;99.90;11.20;95846.00;;;;4976415;28;20326;-69
2022/04/23 09:52:30;;;;;;;32.47;18.53;;;10.70;99.90;11.30;95849.00;;;;4990853;28;20741;-69
2022/04/23 09:55:24;;;;;;;25.93;16.13;;;10.70;99.90;11.70;95834.00;;;;4990417;28;20245;-70
2022/04/23 09:57:54;;;;;;;31.73;18.47;;;10.80;99.90;11.80;95847.00;;;;4990196;28;20582;-69
2022/04/23 10:00:24;;;;;;;32.50;19.90;;;10.90;99.90;11.80;95842.00;;;;4990471;28;20547;-69
2022/04/23 10:03:00;;;;;;;32.60;18.70;;;11.00;99.90;12.00;95851.00;;;;4977539;28;20589;-70
2022/04/23 10:05:29;;;;;;;30.17;18.70;;;11.10;99.90;12.00;95856.00;;;;4970684;28;20191;-69
2022/04/23 10:07:59;;;;;;;33.53;19.97;;;11.20;99.90;11.90;95854.00;;;;4970659;28;20211;-70
2022/04/23 10:10:34;;;;;;;24.80;17.03;;;11.20;99.90;11.90;95863.00;;;;4970540;28;20566;-69
2022/04/23 10:13:04;;;;;;;29.27;16.73;;;11.20;99.90;11.80;95856.00;;;;4971344;28;20198;-70
2022/04/23 10:15:37;;;;;;;29.27;17.43;;;11.20;99.90;12.00;95855.00;;;;4970766;28;20266;-70
2022/04/23 10:18:10;;;;;;;26.33;16.47;;;11.20;99.90;12.20;95865.00;;;;4970671;28;20211;-70
2022/04/23 10:20:40;;;;;;;29.27;17.73;;;11.30;99.90;12.30;95866.00;;;;4975080;28;20611;-70
2022/04/23 10:23:18;;;;;;;23.03;16.10;;;11.40;99.90;12.40;95871.00;;;;4987990;28;20554;-70
2022/04/23 10:25:51;;;;;;;24.50;15.27;;;11.40;99.90;12.20;95870.00;;;;4974651;28;20631;-70
2022/04/23 10:28:19;;;;;;;35.00;15.50;;;11.50;99.90;12.30;95863.00;;;;4974490;28;20697;-70
2022/04/23 10:31:15;;;;;;;28.33;15.27;;;11.50;99.90;12.40;95856.00;;;;4974635;28;20557;-70
2022/04/23 10:33:49;;;;;;;25.17;15.73;;;11.60;99.90;12.40;95859.00;;;;4974699;28;20613;-70
2022/04/23 10:36:19;;;;;;;25.00;16.13;;;11.60;99.90;12.20;95862.00;;;;4974739;28;20199;-70
2022/04/23 10:38:52;;;;;;;23.13;14.60;;;11.60;99.90;12.20;95858.00;;;;4974273;28;20211;-70
2022/04/23 10:41:24;;;;;;;23.13;15.73;;;11.60;99.90;12.20;95863.00;;;;4974456;28;20294;-70
2022/04/23 10:44:02;;;;;;;26.33;16.50;;;11.50;99.90;11.90;95866.00;;;;4974345;28;20229;-70
2022/04/23 10:46:58;;;;;;;27.83;16.27;;;11.50;99.90;12.00;95862.00;;;;4973728;28;20217;-70
2022/04/23 10:49:27;;;;;;;27.00;17.30;;;11.50;99.90;11.40;95862.00;;;;4966690;28;20432;-70
2022/04/23 10:51:57;;;;;;;23.93;15.23;;;11.40;99.90;11.20;95854.00;;;;4993852;28;20626;-70
2022/04/23 10:54:57;;;;;;;27.00;15.93;;;11.20;99.90;10.50;95862.00;;;;4967409;28;20211;-69
2022/04/23 10:57:26;;;;;;;20.33;15.40;;;11.00;99.90;10.90;95860.00;;;;4972232;28;20219;-70
2022/04/23 10:59:55;;;;;;;24.87;16.47;;;10.90;99.90;11.00;95867.00;;;;4973664;28;20340;-70
2022/04/23 11:02:33;;;;;;;30.90;17.67;;;10.80;99.90;10.90;95859.00;;;;4973090;28;20195;-69
2022/04/23 11:14:45;;;;;;;26.90;18.30;;;10.50;99.90;10.60;95869.00;;;;4972323;28;20565;-69
2022/04/23 11:17:14;;;;;;;30.03;17.37;;;10.50;99.90;10.50;95872.00;;;;4972102;28;20223;-69
2022/04/23 11:19:45;;;;;;;25.90;17.73;;;10.40;99.90;10.40;95869.00;;;;4973566;28;20618;-69
2022/04/23 11:22:13;;;;;;;32.00;20.83;;;10.30;99.90;10.20;95879.00;;;;4974314;28;20242;-68
2022/04/23 11:24:42;;;;;;;29.30;19.97;;;10.30;99.90;10.40;95869.00;;;;4973423;28;20254;-68
2022/04/23 11:27:11;;;;;;;26.47;20.07;;;9.80;99.90;10.20;95863.00;;;;4973015;28;20238;-70
2022/04/23 11:29:40;;;;;;;33.13;20.73;;;10.20;99.90;9.90;95862.00;;;;4970702;28;20652;-69